Depesze METAR lotnisk w Polsce

EPWA EPMO EPKK EPLL EPWR EPKT EPGD EPPO EPRZ EPSC EPLB EPBY EPZG EPSY EPCE EPDA EPDE EPIR EPKS EPLK EPLY EPMB EPMI EPMM EPNA EPOK EPPR EPPW EPRA EPSN EPTM

METAR – format kodowanego raportu o pogodzie używany w meteorologii lotniczej i prognozie pogody. METAR jest akronimem od ang. Meteorological Aerodrome Report. Typowy METAR zawiera informację o temperaturze, ciśnieniu, temperaturze punktu rosy, sile i kierunku wiatru, opadzie, pokrywie chmur, wysokości podstawy chmur, widzialności, lecz może zawierać też inne informacje (np. stan dróg startowych).

Warszawa-Okęcie (EPWA)

METAR = EPWA 171030Z 28014KT CAVOK 00/M01 Q1002 NOSIG

STACJA........... EPWA - Warszawa-Okęcie (WAW)
POMIAR........... Mon Jan 17, 11:30 CET
WIATR............ zachodni (W) z prędkością 26 km/h
WIDZIALNOŚĆ...... powyżej 10 kilometrów
CHMURY........... bezchmurne niebo
TEMPERATURA...... 0°C
T.PUNKTU ROSY.... -1°C
WILGOTNOŚĆ....... 93%
T.ODCZUWALNA..... -6°C
CIŚNIENIE........ 1002 hPa
CIŚN.BEZWZGL..... 988 hPa
PROGNOZA......... bez nagłych zmian w ciągu 2h

Sprawdź też: Prognoza pogody Warszawa


Warszawa-Modlin (EPMO)

METAR = EPMO 171030Z 28016KT 9999 FEW015 00/M03 Q1002 =

STACJA........... EPMO - Warszawa-Modlin (WMI)
POMIAR........... Mon Jan 17, 11:30 CET
WIATR............ zachodni (W) z prędkością 30 km/h
WIDZIALNOŚĆ...... powyżej 10 kilometrów
CHMURY........... zachmurzenie niewielkie (1/8-2/8)
TEMPERATURA...... 0°C
T.PUNKTU ROSY.... -3°C
WILGOTNOŚĆ....... 80%
T.ODCZUWALNA..... -7°C
CIŚNIENIE........ 1002 hPa
CIŚN.BEZWZGL..... 989 hPa

Sprawdź też: Prognoza pogody Nowy Dwór Mazowiecki


Kraków-Balice (EPKK)

METAR = EPKK 171030Z 24023KT 9999 -RASN BKN008 02/01 Q1008

STACJA........... EPKK - Kraków-Balice (KRK)
POMIAR........... Mon Jan 17, 11:30 CET
WIATR............ zachodni południowo-zachodni (WSW) z prędkością 43 km/h
WIDZIALNOŚĆ...... powyżej 10 kilometrów
WARUNKI.......... słaby: deszcz śnieg 
CHMURY........... zachmurzenie średnie (5/8-7/8)
TEMPERATURA...... 2°C
T.PUNKTU ROSY.... 1°C
WILGOTNOŚĆ....... 93%
T.ODCZUWALNA..... -4°C
CIŚNIENIE........ 1008 hPa
CIŚN.BEZWZGL..... 978 hPa

Sprawdź też: Prognoza pogody Kraków


Łódź-Lublinek (EPLL)

METAR = EPLL 171030Z 32011G22KT 280V010 6000 R25/1400U -SHSN BKN008CB OVC015 M01/M02 Q1006 RETSGSSN

STACJA........... EPLL - Łódź-Lublinek (LCJ)
POMIAR........... Mon Jan 17, 11:30 CET
WIATR............ północno zachodni (NW) z prędkością 20 km/h, w porywach do 41 km/h
WIDZIALNOŚĆ...... 6000 metrów
WARUNKI.......... słaby: śnieg opad przelotny 
CHMURY........... zachmurzenie całkowite (8/8)
TEMPERATURA...... -1°C
T.PUNKTU ROSY.... -2°C
WILGOTNOŚĆ....... 93%
T.ODCZUWALNA..... -7°C
CIŚNIENIE........ 1006 hPa
CIŚN.BEZWZGL..... 983 hPa
PAS STARTOWY..... brak stanu nawierzchni
Dodatkowo: pas nr 25: widzialność 1400 metrów

Sprawdź też: Prognoza pogody Łódź


Wrocław-Strachowice (EPWR)

METAR = EPWR 171030Z 28029KT 9999 BKN015 06/02 Q1011

STACJA........... EPWR - Wrocław-Strachowice (WRO)
POMIAR........... Mon Jan 17, 11:30 CET
WIATR............ zachodni (W) z prędkością 54 km/h
WIDZIALNOŚĆ...... powyżej 10 kilometrów
CHMURY........... zachmurzenie średnie (5/8-7/8)
TEMPERATURA...... 6°C
T.PUNKTU ROSY.... 2°C
WILGOTNOŚĆ....... 76%
T.ODCZUWALNA..... 0°C
CIŚNIENIE........ 1011 hPa
CIŚN.BEZWZGL..... 996 hPa

Sprawdź też: Prognoza pogody Wrocław


Katowice-Pyrzowice (EPKT)

METAR = EPKT 171030Z 26024G35KT 4000 -RA BR BKN007 02/01 Q1008

STACJA........... EPKT - Katowice-Pyrzowice (KTW)
POMIAR........... Mon Jan 17, 11:30 CET
WIATR............ zachodni (W) z prędkością 44 km/h, w porywach do 65 km/h
WIDZIALNOŚĆ...... 4000 metrów
WARUNKI.......... słaby: deszcz & zamglenie 
CHMURY........... zachmurzenie średnie (5/8-7/8)
TEMPERATURA...... 2°C
T.PUNKTU ROSY.... 1°C
WILGOTNOŚĆ....... 93%
T.ODCZUWALNA..... -5°C
CIŚNIENIE........ 1008 hPa
CIŚN.BEZWZGL..... 971 hPa

Sprawdź też: Prognoza pogody Katowice


Gdańsk (EPGD)

METAR = EPGD 171030Z 32023G34KT 9999 SCT049 02/M07 Q1004

STACJA........... EPGD - Gdańsk im. Lecha Wałęsy (GDN)
POMIAR........... Mon Jan 17, 11:30 CET
WIATR............ północno zachodni (NW) z prędkością 43 km/h, w porywach do 63 km/h
WIDZIALNOŚĆ...... powyżej 10 kilometrów
CHMURY........... zachmurzenie małe (3/8-4/8)
TEMPERATURA...... 2°C
T.PUNKTU ROSY.... -7°C
WILGOTNOŚĆ....... 52%
T.ODCZUWALNA..... -4°C
CIŚNIENIE........ 1004 hPa
CIŚN.BEZWZGL..... 986 hPa

Sprawdź też: Prognoza pogody Gdańsk


Poznań-Ławica (EPPO)

METAR = EPPO 171030Z 31011KT CAVOK 02/M00 Q1011

STACJA........... EPPO - Poznań-Ławica (POZ)
POMIAR........... Mon Jan 17, 11:30 CET
WIATR............ północno zachodni (NW) z prędkością 20 km/h
WIDZIALNOŚĆ...... powyżej 10 kilometrów
CHMURY........... bezchmurne niebo
TEMPERATURA...... 2°C
T.PUNKTU ROSY.... 0°C
WILGOTNOŚĆ....... 87%
T.ODCZUWALNA..... -2°C
CIŚNIENIE........ 1011 hPa
CIŚN.BEZWZGL..... 999 hPa

Sprawdź też: Prognoza pogody Poznań


Rzeszów-Jasionka (EPRZ)

METAR = EPRZ 171030Z 26029G39KT 9999 -RA OVC020 04/01 Q1005

STACJA........... EPRZ - Rzeszów-Jasionka (RZE)
POMIAR........... Mon Jan 17, 11:30 CET
WIATR............ zachodni (W) z prędkością 54 km/h, w porywach do 72 km/h
WIDZIALNOŚĆ...... powyżej 10 kilometrów
WARUNKI.......... słaby: deszcz 
CHMURY........... zachmurzenie całkowite (8/8)
TEMPERATURA...... 4°C
T.PUNKTU ROSY.... 1°C
WILGOTNOŚĆ....... 81%
T.ODCZUWALNA..... -3°C
CIŚNIENIE........ 1005 hPa
CIŚN.BEZWZGL..... 979 hPa

Sprawdź też: Prognoza pogody Rzeszów


Szczecin-Goleniów (EPSC)

METAR = EPSC 171030Z 31019KT CAVOK 04/M06 Q1014

STACJA........... EPSC - Szczecin-Goleniów (SZZ)
POMIAR........... Mon Jan 17, 11:30 CET
WIATR............ północno zachodni (NW) z prędkością 35 km/h
WIDZIALNOŚĆ...... powyżej 10 kilometrów
CHMURY........... bezchmurne niebo
TEMPERATURA...... 4°C
T.PUNKTU ROSY.... -6°C
WILGOTNOŚĆ....... 48%
T.ODCZUWALNA..... -2°C
CIŚNIENIE........ 1014 hPa
CIŚN.BEZWZGL..... 1008 hPa

Sprawdź też: Prognoza pogody Szczecin


Lublin-Świdnik (EPLB)

METAR = EPLB 171030Z 25020KT 5000 RA SCT006 OVC009 02/02 Q0999 =

STACJA........... EPLB - Lublin-Świdnik (LUZ)
POMIAR........... Mon Jan 17, 11:30 CET
WIATR............ zachodni południowo-zachodni (WSW) z prędkością 37 km/h
WIDZIALNOŚĆ...... 5000 metrów
WARUNKI.......... deszcz 
CHMURY........... zachmurzenie całkowite (8/8)
TEMPERATURA...... 2°C
T.PUNKTU ROSY.... 2°C
WILGOTNOŚĆ....... 100%
T.ODCZUWALNA..... -4°C
CIŚNIENIE........ 999 hPa
CIŚN.BEZWZGL..... 974 hPa

Sprawdź też: Prognoza pogody Lublin


Bydgoszcz-Szwederowo (EPBY)

METAR = EPBY 171030Z 31015KT CAVOK 02/M04 Q1007=

STACJA........... EPBY - Bydgoszcz-Szwederowo (BZG)
POMIAR........... Mon Jan 17, 11:30 CET
WIATR............ północno zachodni (NW) z prędkością 28 km/h
WIDZIALNOŚĆ...... powyżej 10 kilometrów
CHMURY........... bezchmurne niebo
TEMPERATURA...... 2°C
T.PUNKTU ROSY.... -4°C
WILGOTNOŚĆ....... 65%
T.ODCZUWALNA..... -3°C
CIŚNIENIE........ 1007 hPa
CIŚN.BEZWZGL..... 998 hPa

Sprawdź też: Prognoza pogody Bydgoszcz


Zielona Góra-Babimost (EPZG)

METAR = EPZG 171030Z 31011G25KT 270V010 9999 -SHRA SCT017CB BKN048 03/02 Q1014 RESHRAGS =

STACJA........... EPZG - Zielona Góra-Babimost (IEG)
POMIAR........... Mon Jan 17, 11:30 CET
WIATR............ północno zachodni (NW) z prędkością 20 km/h, w porywach do 46 km/h
WIDZIALNOŚĆ...... powyżej 10 kilometrów
WARUNKI.......... słaby: deszcz opad przelotny 
CHMURY........... zachmurzenie średnie (5/8-7/8)
TEMPERATURA...... 3°C
T.PUNKTU ROSY.... 2°C
WILGOTNOŚĆ....... 93%
T.ODCZUWALNA..... -2°C
CIŚNIENIE........ 1014 hPa
CIŚN.BEZWZGL..... 1007 hPa
PAS STARTOWY..... brak stanu nawierzchni

Sprawdź też: Prognoza pogody Zielona Góra


Szymany Olsztyn-Mazury (EPSY)

METAR = EPSY 171030Z 30010KT 260V330 9999 SCT035 01/M02 Q1000=

STACJA........... EPSY - Olsztyn-Mazury (SZY)
POMIAR........... Mon Jan 17, 11:30 CET
WIATR............ zachodni północno-zachodni (WNW) z prędkością 19 km/h
WIDZIALNOŚĆ...... powyżej 10 kilometrów
CHMURY........... zachmurzenie małe (3/8-4/8)
TEMPERATURA...... 1°C
T.PUNKTU ROSY.... -2°C
WILGOTNOŚĆ....... 81%
T.ODCZUWALNA..... -3°C
CIŚNIENIE........ 1000 hPa
CIŚN.BEZWZGL..... 983 hPa

Sprawdź też: Prognoza pogody Olsztyn


Cewice (EPCE)

METAR = EPCE 171030Z 32021G35KT 290V360 9999 FEW050 02/M07 Q1006 RMK 023 050 1/1=

STACJA........... EPCE - Cewice
POMIAR........... Mon Jan 17, 11:30 CET
WIATR............ północno zachodni (NW) z prędkością 39 km/h, w porywach do 65 km/h
WIDZIALNOŚĆ...... powyżej 10 kilometrów
CHMURY........... zachmurzenie niewielkie (1/8-2/8)
TEMPERATURA...... 2°C
T.PUNKTU ROSY.... -7°C
WILGOTNOŚĆ....... 52%
T.ODCZUWALNA..... -4°C
CIŚNIENIE........ 1006 hPa
CIŚN.BEZWZGL..... 987 hPa

Darłowo (EPDA)

METAR = EPDA 171030Z 32021G33KT 290V350 CAVOK 04/M05 Q1010 RMK 041 053 0/0=

STACJA........... EPDA - Darłowo
POMIAR........... Mon Jan 17, 11:30 CET
WIATR............ północno zachodni (NW) z prędkością 39 km/h, w porywach do 61 km/h
WIDZIALNOŚĆ...... powyżej 10 kilometrów
CHMURY........... bezchmurne niebo
TEMPERATURA...... 4°C
T.PUNKTU ROSY.... -5°C
WILGOTNOŚĆ....... 52%
T.ODCZUWALNA..... -2°C
CIŚNIENIE........ 1010 hPa
CIŚN.BEZWZGL..... 1010 hPa

Dęblin (EPDE)

METAR = EPDE 171030Z 29034G48KT 1500 SN BKN008 OVC017CB M01/M01 Q1002 RMK M006 097 8/5=

STACJA........... EPDE - Dęblin
POMIAR........... Mon Jan 17, 11:30 CET
WIATR............ zachodni północno-zachodni (WNW) z prędkością 63 km/h, w porywach do 89 km/h
WIDZIALNOŚĆ...... 1500 metrów
WARUNKI.......... śnieg 
CHMURY........... zachmurzenie całkowite (8/8)
TEMPERATURA...... -1°C
T.PUNKTU ROSY.... -1°C
WILGOTNOŚĆ....... 100%
T.ODCZUWALNA..... -11°C
CIŚNIENIE........ 1002 hPa
CIŚN.BEZWZGL..... 987 hPa

Inowrocław-Latkowo (EPIR)

METAR = EPIR 171030Z 31022KT CAVOK 00/M04 Q1007 RMK 004 074 4/4=

STACJA........... EPIR - Inowrocław-Latkowo
POMIAR........... Mon Jan 17, 11:30 CET
WIATR............ północno zachodni (NW) z prędkością 41 km/h
WIDZIALNOŚĆ...... powyżej 10 kilometrów
CHMURY........... bezchmurne niebo
TEMPERATURA...... 0°C
T.PUNKTU ROSY.... -4°C
WILGOTNOŚĆ....... 75%
T.ODCZUWALNA..... -7°C
CIŚNIENIE........ 1007 hPa
CIŚN.BEZWZGL..... 997 hPa

Poznań-Krzesiny (EPKS)

METAR = EPKS 171030Z 32016KT 9999 FEW031 BKN059 02/00 Q1011 RMK 024 086 6/2=

STACJA........... EPKS - Poznań-Krzesiny
POMIAR........... Mon Jan 17, 11:30 CET
WIATR............ północno zachodni (NW) z prędkością 30 km/h
WIDZIALNOŚĆ...... powyżej 10 kilometrów
CHMURY........... zachmurzenie średnie (5/8-7/8)
TEMPERATURA...... 2°C
T.PUNKTU ROSY.... 0°C
WILGOTNOŚĆ....... 87%
T.ODCZUWALNA..... -3°C
CIŚNIENIE........ 1011 hPa
CIŚN.BEZWZGL..... 1001 hPa

Łask (EPLK)

METAR = EPLK 171030Z 35015G28KT 320V040 0500 R28/P2000 SN BKN003 OVC013 M01/M01 Q1007 RETS RMK M013 100 8/5=

STACJA........... EPLK - Łask
POMIAR........... Mon Jan 17, 11:30 CET
WIATR............ północny (N) z prędkością 28 km/h, w porywach do 52 km/h
WIDZIALNOŚĆ...... 500 metrów
WARUNKI.......... śnieg 
CHMURY........... zachmurzenie całkowite (8/8)
TEMPERATURA...... -1°C
T.PUNKTU ROSY.... -1°C
WILGOTNOŚĆ....... 100%
T.ODCZUWALNA..... -8°C
CIŚNIENIE........ 1007 hPa
CIŚN.BEZWZGL..... 983 hPa
WCZEŚNIEJ........ obserwowane były zjawiska: burza

Łęczyca (EPLY)

METAR = EPLY 171030Z 29010KT 9999 FEW009 SCT025 OVC045 M01/M02 Q1006 RMK M008 092 8/2=

STACJA........... EPLY - Łęczyca
POMIAR........... Mon Jan 17, 11:30 CET
WIATR............ zachodni północno-zachodni (WNW) z prędkością 19 km/h
WIDZIALNOŚĆ...... powyżej 10 kilometrów
CHMURY........... zachmurzenie całkowite (8/8)
TEMPERATURA...... -1°C
T.PUNKTU ROSY.... -2°C
WILGOTNOŚĆ....... 93%
T.ODCZUWALNA..... -7°C
CIŚNIENIE........ 1006 hPa
CIŚN.BEZWZGL..... 992 hPa

Malbork (EPMB)

METAR = EPMB 171030Z 31020G30KT 9999 BKN050 03/M03 Q1004 RMK 031 064 6/6=

STACJA........... EPMB - Malbork
POMIAR........... Mon Jan 17, 11:30 CET
WIATR............ północno zachodni (NW) z prędkością 37 km/h, w porywach do 56 km/h
WIDZIALNOŚĆ...... powyżej 10 kilometrów
CHMURY........... zachmurzenie średnie (5/8-7/8)
TEMPERATURA...... 3°C
T.PUNKTU ROSY.... -3°C
WILGOTNOŚĆ....... 65%
T.ODCZUWALNA..... -3°C
CIŚNIENIE........ 1004 hPa
CIŚN.BEZWZGL..... 1003 hPa

Mirosławiec (EPMI)

METAR = EPMI 171030Z 30020G32KT CAVOK 03/M01 Q1011 RMK 027 076 0/0=

STACJA........... EPMI - Mirosławiec
POMIAR........... Mon Jan 17, 11:30 CET
WIATR............ zachodni północno-zachodni (WNW) z prędkością 37 km/h, w porywach do 59 km/h
WIDZIALNOŚĆ...... powyżej 10 kilometrów
CHMURY........... bezchmurne niebo
TEMPERATURA...... 3°C
T.PUNKTU ROSY.... -1°C
WILGOTNOŚĆ....... 75%
T.ODCZUWALNA..... -3°C
CIŚNIENIE........ 1011 hPa
CIŚN.BEZWZGL..... 992 hPa

Mińsk Mazowiecki (EPMM)

METAR = EPMM 171030Z 30017KT 9999 SCT008 BKN019 M00/M03 Q1000 RMK M002 082 7/4=

STACJA........... EPMM - Mińsk Mazowiecki
POMIAR........... Mon Jan 17, 11:30 CET
WIATR............ zachodni północno-zachodni (WNW) z prędkością 31 km/h
WIDZIALNOŚĆ...... powyżej 10 kilometrów
CHMURY........... zachmurzenie średnie (5/8-7/8)
TEMPERATURA...... 0°C
T.PUNKTU ROSY.... -3°C
WILGOTNOŚĆ....... 80%
T.ODCZUWALNA..... -7°C
CIŚNIENIE........ 1000 hPa
CIŚN.BEZWZGL..... 977 hPa

Nadarzyce (EPNA)

METAR = EPNA 171030Z NIL=

STACJA........... EPNA - Nadarzyce
POMIAR........... Mon Jan 17, 11:30 CET
DEPESZA.......... brak aktualnej prognozy w treści depeszy

Gdynia-Kosakowo (EPOK)

METAR = EPOK 171030Z 33029KT 9999 SCT052 03/M06 Q1004 RMK 029 051 3/3=

STACJA........... EPOK - Gdynia-Kosakowo
POMIAR........... Mon Jan 17, 11:30 CET
WIATR............ północno północno-zachodni (NNW) z prędkością 54 km/h
WIDZIALNOŚĆ...... powyżej 10 kilometrów
CHMURY........... zachmurzenie małe (3/8-4/8)
TEMPERATURA...... 3°C
T.PUNKTU ROSY.... -6°C
WILGOTNOŚĆ....... 52%
T.ODCZUWALNA..... -4°C
CIŚNIENIE........ 1004 hPa
CIŚN.BEZWZGL..... 998 hPa

Pruszcz Gdański (EPPR)

METAR = EPPR 171030Z 31024G36KT 9999 BKN058 03/M05 Q1005 RMK 028 057 6/6=

STACJA........... EPPR - Pruszcz Gdański
POMIAR........... Mon Jan 17, 11:30 CET
WIATR............ północno zachodni (NW) z prędkością 44 km/h, w porywach do 67 km/h
WIDZIALNOŚĆ...... powyżej 10 kilometrów
CHMURY........... zachmurzenie średnie (5/8-7/8)
TEMPERATURA...... 3°C
T.PUNKTU ROSY.... -5°C
WILGOTNOŚĆ....... 56%
T.ODCZUWALNA..... -4°C
CIŚNIENIE........ 1005 hPa
CIŚN.BEZWZGL..... 1005 hPa

Powidz (EPPW)

METAR = EPPW 171030Z 31012KT 9999 SCT040 BKN070 02/01 Q1009 RMK 015 097 6/3=

STACJA........... EPPW - Powidz
POMIAR........... Mon Jan 17, 11:30 CET
WIATR............ północno zachodni (NW) z prędkością 22 km/h
WIDZIALNOŚĆ...... powyżej 10 kilometrów
CHMURY........... zachmurzenie średnie (5/8-7/8)
TEMPERATURA...... 2°C
T.PUNKTU ROSY.... 1°C
WILGOTNOŚĆ....... 93%
T.ODCZUWALNA..... -3°C
CIŚNIENIE........ 1009 hPa
CIŚN.BEZWZGL..... 995 hPa

Radom-Sadków (EPRA)

METAR = EPRA 171030Z NIL=

STACJA........... EPRA - Radom-Sadków
POMIAR........... Mon Jan 17, 11:30 CET
DEPESZA.......... brak aktualnej prognozy w treści depeszy

Świdwin (EPSN)

METAR = EPSN 171030Z 31019G30KT CAVOK 03/M03 Q1011 RMK 029 064 0/0=

STACJA........... EPSN - Świdwin
POMIAR........... Mon Jan 17, 11:30 CET
WIATR............ północno zachodni (NW) z prędkością 35 km/h, w porywach do 56 km/h
WIDZIALNOŚĆ...... powyżej 10 kilometrów
CHMURY........... bezchmurne niebo
TEMPERATURA...... 3°C
T.PUNKTU ROSY.... -3°C
WILGOTNOŚĆ....... 65%
T.ODCZUWALNA..... -3°C
CIŚNIENIE........ 1011 hPa
CIŚN.BEZWZGL..... 997 hPa

Tomaszów Mazowiecki (EPTM)

METAR = EPTM 171030Z 32020G46KT 0300 TSSN BKN002 OVC010CB M01/M01 Q1005 RMK M009 098 8/7=

STACJA........... EPTM - Tomaszów Mazowiecki
POMIAR........... Mon Jan 17, 11:30 CET
WIATR............ północno zachodni (NW) z prędkością 37 km/h, w porywach do 85 km/h
WIDZIALNOŚĆ...... 300 metrów
WARUNKI.......... burza śnieg 
CHMURY........... zachmurzenie całkowite (8/8)
TEMPERATURA...... -1°C
T.PUNKTU ROSY.... -1°C
WILGOTNOŚĆ....... 100%
T.ODCZUWALNA..... -8°C
CIŚNIENIE........ 1005 hPa
CIŚN.BEZWZGL..... 984 hPa